createdAt,value
2019-06-26T00:00:45.297Z,107.75
2019-06-26T00:05:46.650Z,104.78
2019-06-26T00:10:49.039Z,103.72
2019-06-26T00:15:51.578Z,110.10
2019-06-26T00:20:56.417Z,103.83
2019-06-26T00:25:57.827Z,103.00
2019-06-26T00:30:59.139Z,95.32
2019-06-26T00:36:00.610Z,96.20
2019-06-26T00:41:03.715Z,97.67
2019-06-26T00:46:05.285Z,93.85
2019-06-26T00:51:06.803Z,87.67
2019-06-26T00:56:08.140Z,82.85
2019-06-26T01:01:09.537Z,83.97
2019-06-26T01:06:13.173Z,88.00
2019-06-26T01:11:21.737Z,80.38
2019-06-26T01:16:24.649Z,80.50
2019-06-26T01:21:30.146Z,84.92
2019-06-26T01:26:31.568Z,84.45
2019-06-26T01:31:34.943Z,82.53
2019-06-26T01:36:38.186Z,82.92
2019-06-26T01:41:41.138Z,84.13
2019-06-26T01:46:42.890Z,86.30
2019-06-26T01:51:44.233Z,83.55
2019-06-26T01:56:46.521Z,92.33
2019-06-26T02:01:49.802Z,95.62
2019-06-26T02:06:51.079Z,93.03
2019-06-26T02:11:54.667Z,107.65
2019-06-26T02:16:56.110Z,119.65
2019-06-26T02:21:58.124Z,108.10
2019-06-26T02:27:01.709Z,109.32
2019-06-26T02:32:04.146Z,110.15
2019-06-26T02:37:05.413Z,109.83
2019-06-26T02:42:07.526Z,106.03
2019-06-26T02:47:19.640Z,112.40
2019-06-26T02:52:14.115Z,113.97
2019-06-26T02:57:21.199Z,119.90
2019-06-26T03:02:29.508Z,113.60
2019-06-26T03:07:33.465Z,117.40
2019-06-26T03:12:34.852Z,114.67
2019-06-26T03:17:54.059Z,118.33
2019-06-26T03:22:42.929Z,131.95
2019-06-26T03:27:44.229Z,123.60
2019-06-26T03:32:48.304Z,134.93
2019-06-26T03:37:49.605Z,132.32
2019-06-26T03:42:52.680Z,127.65
2019-06-26T03:47:54.373Z,125.75
2019-06-26T03:52:57.460Z,137.45
2019-06-26T03:58:01.260Z,142.25
2019-06-26T04:03:03.265Z,144.22
2019-06-26T04:08:04.742Z,142.55
2019-06-26T04:13:06.137Z,142.30
2019-06-26T04:18:07.434Z,141.10
2019-06-26T04:23:08.693Z,131.40
2019-06-26T04:28:11.871Z,154.30
2019-06-26T04:33:13.670Z,149.02
2019-06-26T04:38:14.954Z,154.70
2019-06-26T04:43:16.208Z,157.97
2019-06-26T04:48:26.505Z,153.80
2019-06-26T04:53:29.402Z,132.10
2019-06-26T04:58:30.701Z,125.65
2019-06-26T05:03:31.967Z,127.62
2019-06-26T05:08:33.202Z,119.90
2019-06-26T05:13:36.405Z,135.45
2019-06-26T05:18:37.659Z,121.07
2019-06-26T05:23:39.740Z,114.67
2019-06-26T05:28:41.124Z,119.37
2019-06-26T05:33:42.480Z,118.17
2019-06-26T05:38:43.774Z,123.20
2019-06-26T05:43:45.035Z,119.33
2019-06-26T05:48:46.310Z,113.40
2019-06-26T05:53:48.238Z,107.22
2019-06-26T05:58:49.558Z,107.35
2019-06-26T06:03:50.857Z,108.67
2019-06-26T06:08:52.362Z,98.95
2019-06-26T06:13:55.761Z,98.50
2019-06-26T06:18:57.061Z,89.25
2019-06-26T06:23:58.845Z,86.22
2019-06-26T06:29:01.353Z,76.87
2019-06-26T06:34:02.818Z,76.22
2019-06-26T06:39:05.309Z,71.20
2019-06-26T06:44:06.554Z,68.62
2019-06-26T06:49:07.831Z,65.75
2019-06-26T06:54:09.118Z,62.48
2019-06-26T06:59:10.606Z,65.72
2019-06-26T07:04:11.873Z,65.22
2019-06-26T07:09:13.498Z,62.00
2019-06-26T07:14:14.756Z,64.30
2019-06-26T07:19:16.179Z,60.95
2019-06-26T07:24:17.479Z,52.40
2019-06-26T07:29:18.984Z,55.98
2019-06-26T07:34:20.331Z,53.30
2019-06-26T07:39:21.674Z,54.27
2019-06-26T07:44:22.907Z,46.48
2019-06-26T07:49:24.204Z,46.50
2019-06-26T07:54:25.580Z,55.05
2019-06-26T07:59:27.170Z,46.58
2019-06-26T08:04:28.460Z,47.67
2019-06-26T08:09:29.786Z,51.88
2019-06-26T08:14:31.280Z,40.58
2019-06-26T08:19:32.714Z,49.38
2019-06-26T08:24:33.998Z,46.60
2019-06-26T08:29:37.392Z,44.65
2019-06-26T08:34:38.641Z,46.02
2019-06-26T08:39:40.133Z,42.20
2019-06-26T08:44:41.558Z,47.45
2019-06-26T08:49:42.860Z,47.58
2019-06-26T08:54:44.335Z,50.48
2019-06-26T08:59:45.675Z,48.20
2019-06-26T09:04:46.928Z,42.67
2019-06-26T09:10:06.962Z,48.05
2019-06-26T09:15:09.491Z,47.75
2019-06-26T09:20:11.065Z,45.35
2019-06-26T09:25:21.589Z,45.90
2019-06-26T09:30:17.229Z,46.73
2019-06-26T09:35:18.496Z,50.85
2019-06-26T09:40:20.062Z,50.38
2019-06-26T09:45:21.821Z,45.20
2019-06-26T09:50:23.078Z,48.85
2019-06-26T09:55:24.415Z,48.33
2019-06-26T10:00:26.373Z,49.27
2019-06-26T10:05:27.650Z,48.55
2019-06-26T10:10:28.941Z,48.80
2019-06-26T10:15:30.294Z,49.10
2019-06-26T10:20:31.584Z,53.95
2019-06-26T10:25:32.876Z,60.73
2019-06-26T10:30:35.400Z,52.58
2019-06-26T10:35:36.663Z,61.28
2019-06-26T10:40:38.072Z,68.17
2019-06-26T10:45:39.383Z,68.57
2019-06-26T10:50:49.770Z,75.45
2019-06-26T10:55:46.372Z,71.65
2019-06-26T11:00:48.222Z,74.32
2019-06-26T11:05:49.868Z,78.02
2019-06-26T11:10:51.222Z,70.15
2019-06-26T11:15:52.577Z,59.58
2019-06-26T11:20:53.867Z,58.75
2019-06-26T11:25:55.561Z,66.35
2019-06-26T11:30:56.838Z,64.15
2019-06-26T11:35:58.147Z,60.12
2019-06-26T11:41:01.803Z,62.15
2019-06-26T11:46:03.233Z,66.02
2019-06-26T11:51:05.806Z,63.70
2019-06-26T11:56:08.016Z,60.30
2019-06-26T12:01:11.440Z,63.05
2019-06-26T12:06:18.857Z,61.40
2019-06-26T12:11:16.329Z,61.75
2019-06-26T12:16:36.098Z,50.52
2019-06-26T12:21:37.419Z,45.55
2019-06-26T12:26:38.698Z,39.65
2019-06-26T12:31:40.001Z,29.32
2019-06-26T12:36:41.330Z,38.70
2019-06-26T12:41:42.601Z,26.82
2019-06-26T12:46:43.959Z,28.32
2019-06-26T12:51:45.252Z,27.75
2019-06-26T12:56:46.655Z,27.35
2019-06-26T13:01:47.970Z,30.55
2019-06-26T13:06:49.726Z,26.23
2019-06-26T13:11:51.647Z,23.70
2019-06-26T13:16:52.939Z,22.70
2019-06-26T13:21:54.272Z,25.95
2019-06-26T13:26:55.728Z,23.10
2019-06-26T13:31:57.075Z,28.83
2019-06-26T13:36:58.377Z,32.15
2019-06-26T13:41:59.901Z,31.85
2019-06-26T13:47:01.239Z,31.82
2019-06-26T13:52:04.147Z,29.20
2019-06-26T13:57:05.423Z,28.52
2019-06-26T14:02:07.004Z,24.57
2019-06-26T14:07:08.708Z,29.90
2019-06-26T14:12:10.360Z,25.43
2019-06-26T14:17:11.621Z,27.65
2019-06-26T14:22:13.221Z,23.62
2019-06-26T14:27:14.745Z,26.05
2019-06-26T14:32:15.991Z,21.70
2019-06-26T14:37:17.245Z,22.25
2019-06-26T14:42:18.877Z,25.95
2019-06-26T14:47:20.573Z,21.10
2019-06-26T14:52:21.930Z,19.40
2019-06-26T14:57:25.982Z,23.45
2019-06-26T15:02:26.995Z,20.77
2019-06-26T15:07:29.546Z,16.70
2019-06-26T15:12:33.981Z,18.30
2019-06-26T15:17:35.467Z,15.95
2019-06-26T15:22:36.829Z,14.70
2019-06-26T15:27:38.206Z,18.27
2019-06-26T15:32:39.492Z,19.82
2019-06-26T15:37:40.739Z,16.73
2019-06-26T15:42:43.983Z,11.43
2019-06-26T15:47:45.367Z,13.40
2019-06-26T15:52:46.770Z,8.75
2019-06-26T15:57:48.233Z,8.80
2019-06-26T16:02:52.550Z,10.90
2019-06-26T16:07:53.806Z,12.43
2019-06-26T16:12:55.052Z,13.60
2019-06-26T16:17:58.646Z,9.58
2019-06-26T16:23:00.304Z,9.08
2019-06-26T16:28:05.660Z,11.08
2019-06-26T16:33:07.083Z,7.33
2019-06-26T16:38:09.672Z,9.53
2019-06-26T16:43:11.268Z,10.55
2019-06-26T16:48:15.757Z,12.37
2019-06-26T16:53:17.116Z,10.95
2019-06-26T16:58:18.471Z,8.60
2019-06-26T17:03:21.528Z,9.88
2019-06-26T17:08:23.857Z,9.40
2019-06-26T17:13:29.291Z,5.15
2019-06-26T17:18:33.647Z,7.03
2019-06-26T17:23:39.971Z,6.92
2019-06-26T17:28:41.242Z,6.37
2019-06-26T17:33:42.540Z,6.03
2019-06-26T17:38:44.090Z,8.50
2019-06-26T17:43:45.401Z,8.50
2019-06-26T17:48:51.361Z,8.58
2019-06-26T17:53:51.409Z,9.25
2019-06-26T17:58:54.757Z,7.72
2019-06-26T18:03:56.265Z,9.13
2019-06-26T18:09:11.232Z,8.73
2019-06-26T18:14:03.309Z,10.78
2019-06-26T18:19:05.085Z,12.58
2019-06-26T18:24:06.962Z,8.48
2019-06-26T18:29:11.967Z,7.85
2019-06-26T18:34:18.671Z,7.17
2019-06-26T18:39:19.958Z,7.37
2019-06-26T18:44:21.260Z,8.43
2019-06-26T18:49:23.634Z,8.75
2019-06-26T18:54:25.049Z,8.55
2019-06-26T18:59:28.267Z,6.30
2019-06-26T19:04:30.837Z,5.95
2019-06-26T19:09:34.462Z,8.90
2019-06-26T19:14:37.832Z,6.75
2019-06-26T19:19:39.268Z,8.85
2019-06-26T19:24:40.610Z,7.78
2019-06-26T19:29:45.693Z,13.93
2019-06-26T19:34:47.074Z,9.28
2019-06-26T19:39:48.344Z,10.38
2019-06-26T19:44:49.841Z,5.08
2019-06-26T19:49:51.977Z,7.87
2019-06-26T19:54:53.251Z,9.08
2019-06-26T19:59:54.882Z,10.68
2019-06-26T20:04:56.235Z,11.25
2019-06-26T20:10:01.616Z,9.05
2019-06-26T20:20:32.869Z,10.68
2019-06-26T20:25:35.049Z,7.03
2019-06-26T20:30:36.365Z,8.65
2019-06-26T20:35:42.731Z,9.10
2019-06-26T20:40:41.614Z,8.78
2019-06-26T20:45:43.003Z,13.65
2019-06-26T20:50:46.308Z,14.65
2019-06-26T20:55:47.610Z,8.80
2019-06-26T21:00:48.905Z,11.48
2019-06-26T21:05:50.219Z,7.75
2019-06-26T21:10:51.614Z,8.78
2019-06-26T21:15:53.203Z,10.85
2019-06-26T21:20:54.920Z,13.62
2019-06-26T21:25:56.313Z,8.55
2019-06-26T21:30:59.097Z,10.93
2019-06-26T21:36:00.491Z,11.15
2019-06-26T21:41:01.813Z,9.00
2019-06-26T21:46:03.074Z,11.97
2019-06-26T21:51:12.189Z,11.00
2019-06-26T21:56:14.020Z,10.70
2019-06-26T22:01:15.814Z,10.13
2019-06-26T22:06:17.400Z,10.85
2019-06-26T22:11:18.799Z,12.13
2019-06-26T22:16:20.190Z,11.63
2019-06-26T22:21:21.560Z,8.75
2019-06-26T22:26:25.355Z,13.05
2019-06-26T22:31:28.276Z,17.25
2019-06-26T22:36:29.819Z,8.80
2019-06-26T22:41:31.217Z,9.40
2019-06-26T22:46:32.559Z,12.00
2019-06-26T22:51:33.852Z,11.65
2019-06-26T22:56:35.252Z,9.83
2019-06-26T23:01:36.603Z,10.35
2019-06-26T23:06:59.903Z,11.88
2019-06-26T23:12:01.349Z,13.83
2019-06-26T23:17:02.714Z,14.60
2019-06-26T23:22:05.870Z,12.93
2019-06-26T23:27:08.135Z,13.78
2019-06-26T23:32:13.580Z,14.10
2019-06-26T23:37:15.017Z,13.85
2019-06-26T23:42:16.353Z,8.45
2019-06-26T23:47:17.644Z,14.03
2019-06-26T23:52:19.134Z,15.88
2019-06-26T23:57:20.815Z,13.35
